Time;durP1;ratioP1;P1;durP2;ratioP2;P2;SDS_P1;SDS_P2;PMS_P1;PMS_P2;Temp;Humidity;BMP_temperature;BMP_pressure;BME280_temperature;BME280_humidity;BME280_pressure;Samples;Min_cycle;Max_cycle;Signal;HPM_P1;HPM_P2
2023/10/23 00:01:13;;;;;;;4.30;1.57;;;12.10;99.90;;;;;;4226036;27;20248;-75
2023/10/23 00:03:15;;;;;;;7.00;1.50;;;12.10;99.90;;;;;;4227515;27;20228;-74
2023/10/23 00:05:17;;;;;;;7.33;1.63;;;12.10;99.90;;;;;;4228499;27;20355;-75
2023/10/23 00:07:18;;;;;;;5.63;1.27;;;12.00;99.90;;;;;;4226965;28;20707;-74
2023/10/23 00:09:20;;;;;;;6.13;1.40;;;12.00;99.90;;;;;;4227642;27;20197;-74
2023/10/23 00:11:22;;;;;;;4.03;1.20;;;12.00;99.90;;;;;;4224973;28;20207;-74
2023/10/23 00:13:24;;;;;;;5.97;1.50;;;12.00;99.90;;;;;;4230601;27;20226;-75
2023/10/23 00:15:26;;;;;;;4.07;1.47;;;12.00;99.90;;;;;;4223434;27;20566;-76
2023/10/23 00:17:29;;;;;;;6.50;1.33;;;12.00;99.90;;;;;;4222605;28;20281;-76
2023/10/23 00:19:31;;;;;;;9.77;1.47;;;12.00;99.90;;;;;;4223193;28;20212;-74
2023/10/23 00:21:33;;;;;;;7.30;1.40;;;12.00;99.90;;;;;;4222937;28;20280;-74
2023/10/23 00:23:35;;;;;;;4.60;1.60;;;12.00;99.90;;;;;;4222146;28;20206;-74
2023/10/23 00:25:37;;;;;;;7.00;1.50;;;12.00;99.90;;;;;;4222249;28;20266;-74
2023/10/23 00:27:38;;;;;;;4.90;1.40;;;12.00;99.90;;;;;;4226564;27;20250;-75
2023/10/23 00:29:40;;;;;;;6.90;1.73;;;12.00;99.90;;;;;;4227926;27;20661;-76
2023/10/23 00:31:41;;;;;;;8.00;1.20;;;11.90;99.90;;;;;;4224392;28;20202;-74
2023/10/23 00:33:45;;;;;;;6.77;1.50;;;11.90;99.90;;;;;;4227140;27;20200;-75
2023/10/23 00:35:47;;;;;;;5.37;1.60;;;11.90;99.90;;;;;;4228137;27;20741;-74
2023/10/23 00:37:49;;;;;;;6.37;1.60;;;11.90;99.90;;;;;;4222774;28;20201;-74
2023/10/23 00:39:50;;;;;;;6.83;1.40;;;11.90;99.90;;;;;;4226588;28;20261;-75
2023/10/23 00:41:52;;;;;;;6.23;1.50;;;11.90;99.90;;;;;;4225899;28;20286;-76
2023/10/23 00:43:54;;;;;;;9.63;3.20;;;11.90;99.90;;;;;;4225634;28;20246;-76
2023/10/23 00:45:58;;;;;;;9.30;3.43;;;11.90;99.90;;;;;;4227726;27;20764;-74
2023/10/23 00:48:00;;;;;;;7.33;3.00;;;11.90;99.90;;;;;;4224439;28;20756;-75
2023/10/23 00:50:04;;;;;;;10.07;2.83;;;11.90;99.90;;;;;;4228991;27;20245;-74
2023/10/23 00:52:07;;;;;;;6.13;1.70;;;11.90;99.90;;;;;;4224514;28;20217;-75
2023/10/23 00:54:09;;;;;;;5.90;1.73;;;11.90;99.90;;;;;;4225413;27;20285;-76
2023/10/23 00:56:13;;;;;;;6.07;1.47;;;11.90;99.90;;;;;;4229274;27;20205;-74
2023/10/23 00:58:15;;;;;;;3.87;1.43;;;11.90;99.90;;;;;;4228374;27;20209;-75
2023/10/23 01:00:18;;;;;;;4.43;1.50;;;11.90;99.90;;;;;;4225892;28;20294;-74
2023/10/23 01:02:20;;;;;;;4.13;1.40;;;11.90;99.90;;;;;;4224921;28;20297;-74
2023/10/23 01:04:22;;;;;;;4.77;1.60;;;11.90;99.90;;;;;;4227138;27;20657;-74
2023/10/23 01:06:25;;;;;;;6.27;1.50;;;11.80;99.90;;;;;;4224445;27;20265;-74
2023/10/23 01:08:26;;;;;;;3.83;1.23;;;11.90;99.90;;;;;;4225480;28;20318;-76
2023/10/23 01:10:28;;;;;;;7.27;1.60;;;11.90;99.90;;;;;;4227031;27;20247;-76
2023/10/23 01:12:30;;;;;;;4.10;1.30;;;11.90;99.90;;;;;;4223387;27;20281;-74
2023/10/23 01:14:32;;;;;;;5.87;1.50;;;11.80;99.90;;;;;;4234083;27;20233;-74
2023/10/23 01:16:34;;;;;;;5.63;1.50;;;11.90;99.90;;;;;;4226008;27;20269;-74
2023/10/23 01:18:35;;;;;;;6.33;1.70;;;11.80;99.90;;;;;;4224776;27;20228;-75
2023/10/23 01:20:36;;;;;;;6.20;1.53;;;11.80;99.90;;;;;;4228670;27;20208;-74
2023/10/23 01:22:40;;;;;;;5.67;1.50;;;11.80;99.90;;;;;;4220916;27;20232;-74
2023/10/23 01:24:45;;;;;;;3.40;1.43;;;11.90;99.90;;;;;;4225482;27;20572;-74
2023/10/23 01:26:49;;;;;;;5.10;1.20;;;11.90;99.90;;;;;;4225370;28;20824;-74
2023/10/23 01:28:50;;;;;;;6.87;1.50;;;11.80;99.90;;;;;;4223226;27;20201;-74
2023/10/23 01:30:52;;;;;;;6.90;2.07;;;11.80;99.90;;;;;;4227174;28;20205;-73
2023/10/23 01:32:53;;;;;;;8.30;1.73;;;11.80;99.90;;;;;;4225074;28;20713;-74
2023/10/23 01:34:55;;;;;;;6.07;1.50;;;11.80;99.90;;;;;;4223002;28;20193;-73
2023/10/23 01:36:57;;;;;;;6.63;1.70;;;11.80;99.90;;;;;;4226322;27;20710;-74
2023/10/23 01:38:58;;;;;;;3.57;1.20;;;11.80;99.90;;;;;;4232453;27;20234;-74
2023/10/23 01:41:00;;;;;;;4.97;1.53;;;11.80;99.90;;;;;;4233085;27;20652;-76
2023/10/23 01:43:03;;;;;;;10.90;1.87;;;11.80;99.90;;;;;;4226456;28;20297;-75
2023/10/23 01:45:06;;;;;;;8.30;1.87;;;11.80;99.90;;;;;;4219688;28;20205;-75
2023/10/23 01:47:08;;;;;;;4.80;1.30;;;11.80;99.90;;;;;;4231270;27;20201;-74
2023/10/23 01:49:09;;;;;;;5.33;1.50;;;11.70;99.90;;;;;;4226301;27;20212;-75
2023/10/23 01:51:11;;;;;;;10.67;1.80;;;11.60;99.90;;;;;;4225955;28;20200;-74
2023/10/23 01:53:12;;;;;;;8.63;2.10;;;11.70;99.90;;;;;;4228291;27;20232;-75
2023/10/23 01:55:14;;;;;;;8.80;2.37;;;11.70;99.90;;;;;;4228921;27;20284;-74
2023/10/23 01:57:16;;;;;;;8.33;2.00;;;11.70;99.90;;;;;;4219498;28;20214;-74
2023/10/23 01:59:19;;;;;;;9.30;2.00;;;11.70;99.90;;;;;;4229888;27;20225;-74
2023/10/23 02:01:21;;;;;;;7.37;1.80;;;11.70;99.90;;;;;;4228393;27;20694;-75
2023/10/23 02:03:23;;;;;;;5.23;1.70;;;11.70;99.90;;;;;;4229526;27;20224;-75
2023/10/23 02:05:25;;;;;;;11.63;2.23;;;11.70;99.90;;;;;;4220014;28;20205;-74
2023/10/23 02:07:27;;;;;;;7.40;1.60;;;11.70;99.90;;;;;;4217304;28;20204;-74
2023/10/23 02:09:29;;;;;;;9.67;1.77;;;11.70;99.90;;;;;;4227465;28;20679;-74
2023/10/23 02:11:32;;;;;;;9.80;1.90;;;11.70;99.90;;;;;;4227068;28;20250;-75
2023/10/23 02:13:33;;;;;;;7.50;1.63;;;11.70;99.90;;;;;;4223970;28;20228;-75
2023/10/23 02:15:37;;;;;;;6.43;1.77;;;11.60;99.90;;;;;;4225693;28;20204;-75
2023/10/23 02:17:39;;;;;;;6.40;2.00;;;11.70;99.90;;;;;;4222090;28;20213;-75
2023/10/23 02:19:41;;;;;;;8.13;1.63;;;11.60;99.90;;;;;;4225780;28;20205;-75
2023/10/23 02:21:49;;;;;;;5.80;1.60;;;11.60;99.90;;;;;;4224680;28;20263;-75
2023/10/23 02:23:51;;;;;;;7.80;1.87;;;11.60;99.90;;;;;;4222775;28;20214;-75
2023/10/23 02:25:52;;;;;;;6.93;1.50;;;11.60;99.90;;;;;;4226202;28;20265;-74
2023/10/23 02:27:54;;;;;;;4.47;1.40;;;11.60;99.90;;;;;;4221910;28;20222;-74
2023/10/23 02:29:55;;;;;;;5.33;1.77;;;11.60;99.90;;;;;;4226484;28;20208;-74
2023/10/23 02:31:59;;;;;;;8.50;2.60;;;11.60;99.90;;;;;;4222221;28;20236;-75
2023/10/23 02:34:01;;;;;;;10.13;3.23;;;11.60;99.90;;;;;;4218883;28;20268;-74
2023/10/23 02:36:03;;;;;;;10.87;3.30;;;11.60;99.90;;;;;;4224728;28;20264;-74
2023/10/23 02:38:05;;;;;;;9.70;3.50;;;11.60;99.90;;;;;;4225256;28;20690;-74
2023/10/23 02:40:07;;;;;;;6.37;2.63;;;11.70;99.90;;;;;;4229624;28;20217;-75
2023/10/23 02:42:09;;;;;;;6.50;2.50;;;11.60;99.90;;;;;;4226760;28;20231;-75
2023/10/23 02:44:11;;;;;;;10.03;2.63;;;11.60;99.90;;;;;;4222441;28;20683;-74
2023/10/23 02:46:12;;;;;;;6.47;1.90;;;11.60;99.90;;;;;;4227960;28;20219;-75
2023/10/23 02:48:16;;;;;;;7.57;1.70;;;11.70;99.90;;;;;;4227381;27;20299;-75
2023/10/23 02:50:19;;;;;;;5.97;1.43;;;11.70;99.90;;;;;;4232976;27;20222;-74
2023/10/23 02:52:21;;;;;;;5.50;1.73;;;11.70;99.90;;;;;;4229710;27;20635;-74
2023/10/23 02:54:23;;;;;;;5.97;1.50;;;11.70;99.90;;;;;;4229071;27;20298;-76
2023/10/23 02:56:25;;;;;;;6.00;1.73;;;11.60;99.90;;;;;;4229138;27;20575;-76
2023/10/23 02:58:25;;;;;;;9.50;1.50;;;11.70;99.90;;;;;;4231445;28;20220;-74
2023/10/23 03:00:28;;;;;;;6.40;1.90;;;11.70;99.90;;;;;;4225647;28;20196;-74
2023/10/23 03:02:30;;;;;;;4.67;1.47;;;11.70;99.90;;;;;;4224845;27;20244;-74
2023/10/23 03:04:36;;;;;;;4.53;1.50;;;11.70;99.90;;;;;;4224638;27;20208;-75
2023/10/23 03:06:38;;;;;;;6.77;1.57;;;11.70;99.90;;;;;;4228466;27;20209;-76
2023/10/23 03:08:40;;;;;;;11.30;1.50;;;11.70;99.90;;;;;;4226981;27;20668;-75
2023/10/23 03:10:42;;;;;;;10.50;1.50;;;11.70;99.90;;;;;;4226998;27;20204;-76
2023/10/23 03:12:44;;;;;;;9.13;1.50;;;11.70;99.90;;;;;;4222311;28;20950;-75
2023/10/23 03:14:46;;;;;;;10.10;1.63;;;11.70;99.90;;;;;;4233807;27;20811;-74
2023/10/23 03:16:48;;;;;;;8.13;1.70;;;11.70;99.90;;;;;;4231426;27;20192;-75
2023/10/23 03:18:49;;;;;;;7.00;1.43;;;11.70;99.90;;;;;;4230749;27;20688;-74
2023/10/23 03:20:53;;;;;;;8.07;2.53;;;11.70;99.90;;;;;;4219502;28;20201;-76
2023/10/23 03:22:54;;;;;;;9.03;1.60;;;11.70;99.90;;;;;;4231081;27;20217;-76
2023/10/23 03:24:57;;;;;;;4.27;1.50;;;11.70;99.90;;;;;;4232563;27;20210;-74
2023/10/23 03:26:58;;;;;;;6.77;1.33;;;11.70;99.90;;;;;;4232115;27;20262;-76
2023/10/23 03:28:59;;;;;;;5.37;1.47;;;11.70;99.90;;;;;;4231247;27;20197;-74
2023/10/23 03:31:03;;;;;;;3.03;1.20;;;11.70;99.90;;;;;;4235414;27;20208;-74
2023/10/23 03:33:05;;;;;;;4.87;1.10;;;11.70;99.90;;;;;;4230377;27;20243;-75
2023/10/23 03:35:07;;;;;;;4.63;1.43;;;11.70;99.90;;;;;;4229353;27;20213;-74
2023/10/23 03:37:10;;;;;;;3.50;1.30;;;11.70;99.90;;;;;;4228130;27;20212;-76
2023/10/23 03:39:12;;;;;;;5.33;1.30;;;11.70;99.90;;;;;;4230944;27;20255;-75
2023/10/23 03:41:14;;;;;;;4.97;1.03;;;11.70;99.90;;;;;;4227075;27;20540;-77
2023/10/23 03:43:16;;;;;;;4.10;1.33;;;11.70;99.90;;;;;;4225215;27;20274;-77
2023/10/23 03:45:18;;;;;;;3.47;1.00;;;11.70;99.90;;;;;;4224403;27;20213;-78
2023/10/23 03:47:20;;;;;;;3.73;1.03;;;11.70;99.90;;;;;;4226410;27;20204;-77
2023/10/23 03:49:21;;;;;;;3.10;1.17;;;11.70;99.90;;;;;;4221732;28;20204;-76
2023/10/23 03:51:23;;;;;;;2.50;1.10;;;11.70;99.90;;;;;;4219315;27;20228;-77
2023/10/23 03:53:26;;;;;;;4.10;1.30;;;11.70;99.90;;;;;;4221771;27;20221;-77
2023/10/23 03:55:28;;;;;;;6.53;1.63;;;11.60;99.90;;;;;;4223813;28;20815;-76
2023/10/23 03:57:30;;;;;;;5.17;1.00;;;11.70;99.90;;;;;;4223363;28;20204;-76
2023/10/23 03:59:32;;;;;;;2.83;1.27;;;11.70;99.90;;;;;;4219856;28;20209;-76
2023/10/23 04:01:33;;;;;;;3.67;1.10;;;11.70;99.90;;;;;;4224646;27;20831;-76
2023/10/23 04:03:35;;;;;;;4.47;1.30;;;11.70;99.90;;;;;;4225338;27;20264;-76
2023/10/23 04:05:41;;;;;;;4.07;1.40;;;11.70;99.90;;;;;;4220813;27;20263;-77
2023/10/23 04:07:42;;;;;;;6.10;1.43;;;11.70;99.90;;;;;;4224640;27;20299;-76
2023/10/23 04:09:46;;;;;;;5.80;1.50;;;11.70;99.90;;;;;;4226873;27;20201;-76
2023/10/23 04:11:48;;;;;;;5.17;1.50;;;11.70;99.90;;;;;;4229068;27;20198;-81
2023/10/23 04:13:50;;;;;;;8.10;1.70;;;11.70;99.90;;;;;;4232460;27;20284;-75
2023/10/23 04:15:55;;;;;;;5.87;1.80;;;11.70;99.90;;;;;;4221745;27;20255;-75
2023/10/23 04:17:56;;;;;;;4.20;1.30;;;11.70;99.90;;;;;;4222217;27;20212;-75
2023/10/23 04:19:59;;;;;;;4.73;1.47;;;11.70;99.90;;;;;;4226137;27;20567;-75
2023/10/23 04:22:01;;;;;;;9.03;1.60;;;11.70;99.90;;;;;;4221811;27;20228;-74
2023/10/23 04:24:02;;;;;;;3.93;1.67;;;11.70;99.90;;;;;;4226401;27;20265;-75
2023/10/23 04:26:06;;;;;;;6.97;1.57;;;11.70;99.90;;;;;;4222659;27;20263;-76
2023/10/23 04:28:08;;;;;;;5.23;1.40;;;11.70;99.90;;;;;;4224024;27;20200;-75
2023/10/23 04:30:11;;;;;;;3.90;1.27;;;11.70;99.90;;;;;;4220026;27;20254;-75
2023/10/23 04:32:13;;;;;;;5.17;1.53;;;11.70;99.90;;;;;;4225527;27;20758;-75
2023/10/23 04:34:15;;;;;;;3.57;1.20;;;11.70;99.90;;;;;;4222290;27;20207;-75
2023/10/23 04:36:17;;;;;;;5.30;1.20;;;11.70;99.90;;;;;;4218145;28;20209;-72
2023/10/23 04:38:18;;;;;;;4.53;1.40;;;11.70;99.90;;;;;;4226822;27;20275;-73
2023/10/23 04:40:20;;;;;;;2.40;1.10;;;11.60;99.90;;;;;;4229330;27;20788;-73
2023/10/23 04:42:23;;;;;;;3.50;1.13;;;11.60;99.90;;;;;;4227036;27;20262;-75
2023/10/23 04:44:25;;;;;;;5.93;1.20;;;11.60;99.90;;;;;;4224625;27;20231;-75
2023/10/23 04:46:27;;;;;;;4.30;1.60;;;11.60;99.90;;;;;;4227970;27;20244;-78
2023/10/23 04:48:29;;;;;;;6.17;1.50;;;11.60;99.90;;;;;;4226125;27;20282;-83
2023/10/23 04:50:31;;;;;;;3.30;1.27;;;11.60;99.90;;;;;;4224015;27;20834;-74
2023/10/23 04:52:33;;;;;;;3.07;1.13;;;11.60;99.90;;;;;;4224210;27;20714;-73
2023/10/23 04:54:35;;;;;;;2.70;1.40;;;11.50;99.90;;;;;;4223845;27;20223;-73
2023/10/23 04:56:37;;;;;;;4.47;1.60;;;11.50;99.90;;;;;;4225303;27;20204;-74
2023/10/23 04:58:40;;;;;;;5.63;1.77;;;11.50;99.90;;;;;;4226243;28;20260;-74
2023/10/23 05:00:45;;;;;;;5.90;1.50;;;11.50;99.90;;;;;;4222435;27;20253;-73
2023/10/23 05:02:50;;;;;;;2.23;1.20;;;11.50;99.90;;;;;;4223847;27;20216;-72
2023/10/23 05:04:52;;;;;;;4.60;1.47;;;11.50;99.90;;;;;;4221369;27;20679;-73
2023/10/23 05:06:53;;;;;;;8.00;1.77;;;11.50;99.90;;;;;;4223695;27;20204;-74
2023/10/23 05:08:55;;;;;;;4.40;1.47;;;11.50;99.90;;;;;;4222667;27;20256;-74
2023/10/23 05:11:08;;;;;;;3.43;1.30;;;11.40;99.90;;;;;;4222900;28;20676;-75
2023/10/23 05:13:10;;;;;;;3.43;1.30;;;11.40;99.90;;;;;;4224385;27;20221;-73
2023/10/23 05:15:14;;;;;;;5.50;1.63;;;11.40;99.90;;;;;;4224862;28;20200;-73
2023/10/23 05:17:16;;;;;;;3.17;1.37;;;11.40;99.90;;;;;;4224375;27;20212;-76
2023/10/23 05:19:18;;;;;;;4.83;1.60;;;11.40;99.90;;;;;;4220252;27;20288;-74
2023/10/23 05:21:19;;;;;;;3.63;1.47;;;11.40;99.90;;;;;;4228813;27;20615;-73
2023/10/23 05:23:20;;;;;;;5.33;1.70;;;11.40;99.90;;;;;;4226303;27;20225;-71
2023/10/23 05:25:22;;;;;;;2.20;1.27;;;11.40;99.90;;;;;;4233655;27;20200;-72
2023/10/23 05:27:24;;;;;;;5.17;1.50;;;11.40;99.90;;;;;;4225902;27;20201;-72
2023/10/23 05:29:26;;;;;;;4.47;1.80;;;11.40;99.90;;;;;;4227847;27;20266;-72
2023/10/23 05:31:29;;;;;;;5.73;1.67;;;11.30;99.90;;;;;;4233697;27;20212;-72
2023/10/23 05:33:30;;;;;;;4.90;1.47;;;11.40;99.90;;;;;;4229317;27;20217;-72
2023/10/23 05:35:32;;;;;;;6.60;2.00;;;11.40;99.90;;;;;;4224479;27;20200;-74
2023/10/23 05:37:34;;;;;;;5.10;1.63;;;11.30;99.90;;;;;;4223008;27;20204;-76
2023/10/23 05:39:36;;;;;;;6.83;1.50;;;11.30;99.90;;;;;;4230071;27;20206;-73
2023/10/23 05:41:37;;;;;;;4.13;1.33;;;11.40;99.90;;;;;;4225730;28;20257;-74
2023/10/23 05:43:39;;;;;;;5.50;1.83;;;11.40;99.90;;;;;;4230892;27;20231;-74
2023/10/23 05:45:41;;;;;;;4.63;1.77;;;11.40;99.90;;;;;;4221677;28;20209;-73
2023/10/23 05:47:44;;;;;;;7.83;2.03;;;11.30;99.90;;;;;;4229655;27;20207;-74
2023/10/23 05:49:46;;;;;;;4.23;1.50;;;11.30;99.90;;;;;;4231820;27;20204;-74
2023/10/23 05:51:48;;;;;;;4.13;1.70;;;11.30;99.90;;;;;;4225469;28;20212;-75
2023/10/23 05:53:50;;;;;;;5.47;1.60;;;11.30;99.90;;;;;;4226753;27;20933;-73
2023/10/23 05:55:51;;;;;;;3.40;1.70;;;11.30;99.90;;;;;;4226799;27;20287;-73
2023/10/23 05:57:54;;;;;;;4.97;1.57;;;11.30;99.90;;;;;;4227494;27;20571;-74
2023/10/23 05:59:55;;;;;;;6.87;1.70;;;11.30;99.90;;;;;;4225381;28;20592;-73
2023/10/23 06:01:57;;;;;;;5.63;1.83;;;11.30;99.90;;;;;;4225159;27;20690;-73
2023/10/23 06:04:01;;;;;;;5.97;2.20;;;11.30;99.90;;;;;;4222233;27;20224;-73
2023/10/23 06:06:03;;;;;;;4.83;1.97;;;11.30;99.90;;;;;;4227350;28;20208;-74
2023/10/23 06:08:05;;;;;;;7.57;1.90;;;11.20;99.90;;;;;;4222647;28;20563;-74
2023/10/23 06:10:08;;;;;;;5.97;1.83;;;11.30;99.90;;;;;;4225705;27;20649;-75
2023/10/23 06:12:11;;;;;;;7.53;2.43;;;11.30;99.90;;;;;;4226406;28;20228;-73
2023/10/23 06:14:13;;;;;;;4.60;2.20;;;11.30;99.90;;;;;;4230422;28;20213;-74
2023/10/23 06:16:15;;;;;;;5.93;2.10;;;11.30;99.90;;;;;;4229059;28;20204;-74
2023/10/23 06:18:17;;;;;;;4.63;1.77;;;11.20;99.90;;;;;;4221748;28;20204;-73
2023/10/23 06:20:20;;;;;;;7.87;3.00;;;11.20;99.90;;;;;;4229403;27;20226;-73
2023/10/23 06:22:22;;;;;;;7.63;2.70;;;11.10;99.90;;;;;;4227713;28;20758;-74
2023/10/23 06:24:24;;;;;;;6.43;2.17;;;11.20;99.90;;;;;;4227429;28;20221;-73
2023/10/23 06:26:28;;;;;;;6.37;1.90;;;11.20;99.90;;;;;;4231015;27;20215;-73
2023/10/23 06:28:30;;;;;;;7.10;2.33;;;11.10;99.90;;;;;;4229792;28;20262;-73
2023/10/23 06:30:32;;;;;;;5.47;2.10;;;11.10;99.90;;;;;;4229080;27;20268;-74
2023/10/23 06:32:34;;;;;;;6.57;2.20;;;11.10;99.90;;;;;;4232164;27;20228;-74
2023/10/23 06:34:36;;;;;;;8.60;2.50;;;11.10;99.90;;;;;;4233948;27;20208;-73
2023/10/23 06:36:41;;;;;;;7.50;2.60;;;11.10;99.90;;;;;;4228042;27;20201;-75
2023/10/23 06:38:43;;;;;;;8.30;2.60;;;11.10;99.90;;;;;;4226880;28;20211;-73
2023/10/23 06:40:44;;;;;;;8.87;2.20;;;11.10;99.90;;;;;;4227396;28;20204;-73
2023/10/23 06:42:46;;;;;;;10.00;2.50;;;11.10;99.90;;;;;;4231019;28;20276;-74
2023/10/23 06:44:48;;;;;;;4.00;2.30;;;11.10;99.90;;;;;;4228056;27;20217;-73
2023/10/23 06:46:50;;;;;;;10.17;2.70;;;11.00;99.90;;;;;;4223664;28;20207;-73
2023/10/23 06:48:52;;;;;;;5.90;2.50;;;11.00;99.90;;;;;;4231062;28;20211;-73
2023/10/23 06:50:55;;;;;;;4.60;2.10;;;11.00;99.90;;;;;;4230981;28;20196;-74
2023/10/23 06:52:58;;;;;;;6.10;2.27;;;11.00;99.90;;;;;;4228123;28;20648;-73
2023/10/23 06:55:00;;;;;;;3.60;2.13;;;11.00;99.90;;;;;;4228077;27;20234;-74
2023/10/23 06:57:06;;;;;;;7.33;2.73;;;11.00;99.90;;;;;;4224935;27;20208;-74
2023/10/23 06:59:08;;;;;;;8.37;4.00;;;11.00;99.90;;;;;;4232584;27;20191;-73
2023/10/23 07:01:10;;;;;;;10.23;3.53;;;11.00;99.90;;;;;;4224581;27;20217;-74
2023/10/23 07:03:11;;;;;;;8.90;3.37;;;11.00;99.90;;;;;;4229031;27;20702;-73
2023/10/23 07:05:13;;;;;;;6.70;2.20;;;10.90;99.90;;;;;;4228248;28;20203;-74
2023/10/23 07:07:15;;;;;;;7.47;2.40;;;11.10;99.90;;;;;;4231640;27;20656;-73
2023/10/23 07:09:19;;;;;;;4.43;2.30;;;11.00;99.90;;;;;;4228238;27;20217;-74
2023/10/23 07:11:22;;;;;;;4.70;2.03;;;11.00;99.90;;;;;;4225732;27;20201;-73
2023/10/23 07:13:23;;;;;;;5.23;2.20;;;11.00;99.90;;;;;;4226715;27;20312;-74
2023/10/23 07:15:25;;;;;;;5.07;1.97;;;10.90;99.90;;;;;;4229168;27;20694;-73
2023/10/23 07:17:27;;;;;;;3.87;1.83;;;11.00;99.90;;;;;;4228520;27;20585;-74
2023/10/23 07:19:29;;;;;;;7.23;2.50;;;10.90;99.90;;;;;;4224066;27;20574;-73
2023/10/23 07:21:32;;;;;;;5.47;2.43;;;10.90;99.90;;;;;;4227415;27;20208;-74
2023/10/23 07:23:34;;;;;;;6.07;2.20;;;10.90;99.90;;;;;;4232364;27;20231;-73
2023/10/23 07:25:37;;;;;;;3.53;2.10;;;10.90;99.90;;;;;;4222275;27;20204;-74
2023/10/23 07:27:40;;;;;;;5.07;2.03;;;10.90;99.90;;;;;;4233494;27;20204;-74
2023/10/23 07:29:42;;;;;;;6.63;1.87;;;10.90;99.90;;;;;;4230373;27;20239;-73
2023/10/23 07:31:44;;;;;;;8.93;2.30;;;10.90;99.90;;;;;;4227523;27;20213;-73
2023/10/23 07:33:46;;;;;;;8.43;2.40;;;11.00;99.90;;;;;;4235789;27;20659;-75
2023/10/23 07:35:47;;;;;;;5.87;2.17;;;11.00;99.90;;;;;;4230664;27;20211;-76
2023/10/23 07:37:49;;;;;;;4.17;2.03;;;11.00;99.90;;;;;;4237762;27;20207;-74
2023/10/23 07:39:51;;;;;;;7.97;2.20;;;11.00;99.90;;;;;;4239399;27;20232;-74
2023/10/23 07:41:55;;;;;;;5.23;2.00;;;11.00;99.90;;;;;;4229561;28;20231;-75
2023/10/23 07:43:59;;;;;;;8.37;2.10;;;11.00;99.90;;;;;;4231299;27;20209;-74
2023/10/23 07:46:04;;;;;;;5.40;2.00;;;11.00;99.90;;;;;;4230846;27;20686;-75
2023/10/23 07:48:06;;;;;;;4.83;2.10;;;11.10;99.90;;;;;;4227928;27;20220;-74
2023/10/23 07:50:09;;;;;;;5.60;2.00;;;11.10;99.90;;;;;;4225639;27;20201;-74
2023/10/23 07:52:12;;;;;;;4.00;1.93;;;11.10;99.90;;;;;;4226652;28;20228;-74
2023/10/23 07:54:14;;;;;;;7.60;2.63;;;11.10;99.90;;;;;;4224292;28;20207;-74
2023/10/23 07:56:16;;;;;;;6.53;2.13;;;11.10;99.90;;;;;;4229578;27;20667;-74
2023/10/23 07:58:20;;;;;;;5.73;2.13;;;11.10;99.90;;;;;;4231296;27;20716;-74
2023/10/23 08:00:22;;;;;;;5.87;2.20;;;11.20;99.90;;;;;;4226009;27;20304;-75
2023/10/23 08:02:24;;;;;;;10.07;2.90;;;11.30;99.90;;;;;;4228051;27;20228;-75
2023/10/23 08:04:25;;;;;;;5.63;3.07;;;11.30;99.90;;;;;;4233734;27;20213;-74
2023/10/23 08:06:27;;;;;;;9.30;2.90;;;11.30;99.90;;;;;;4226740;28;20868;-73
2023/10/23 08:08:29;;;;;;;2.80;1.83;;;11.40;99.90;;;;;;4233377;27;20212;-74
2023/10/23 08:10:31;;;;;;;6.70;2.00;;;11.40;99.90;;;;;;4220418;28;20687;-74
2023/10/23 08:12:33;;;;;;;6.83;2.20;;;11.50;99.90;;;;;;4227856;28;20780;-75
2023/10/23 08:14:37;;;;;;;8.20;2.00;;;11.60;99.90;;;;;;4231524;27;20204;-74
2023/10/23 08:16:39;;;;;;;7.00;2.17;;;11.60;99.90;;;;;;4229756;27;20208;-74
2023/10/23 08:18:42;;;;;;;4.43;2.00;;;11.60;99.90;;;;;;4227189;28;20212;-73
2023/10/23 08:20:44;;;;;;;5.70;2.10;;;11.60;99.90;;;;;;4224302;28;20200;-74
2023/10/23 08:22:47;;;;;;;4.33;1.77;;;11.70;99.90;;;;;;4228004;27;20224;-74
2023/10/23 08:24:49;;;;;;;6.80;2.17;;;11.70;99.90;;;;;;4226528;27;20213;-74
2023/10/23 08:26:51;;;;;;;6.30;2.17;;;11.70;99.90;;;;;;4228966;27;20295;-74
2023/10/23 08:28:53;;;;;;;6.23;2.17;;;11.70;99.90;;;;;;4227833;27;20747;-74
2023/10/23 08:30:56;;;;;;;6.87;2.20;;;11.70;99.90;;;;;;4227005;28;20223;-74
2023/10/23 08:32:57;;;;;;;5.30;2.20;;;11.80;99.90;;;;;;4227812;28;20238;-74
2023/10/23 08:34:59;;;;;;;4.73;1.97;;;11.80;99.90;;;;;;4227144;28;20755;-74
2023/10/23 08:37:01;;;;;;;4.57;1.80;;;11.90;99.90;;;;;;4223960;27;20609;-74
2023/10/23 08:39:03;;;;;;;3.07;1.60;;;12.00;99.90;;;;;;4226136;27;20261;-75
2023/10/23 08:41:06;;;;;;;6.67;2.10;;;12.00;99.90;;;;;;4229969;28;20262;-74
2023/10/23 08:43:08;;;;;;;3.33;1.63;;;12.00;99.90;;;;;;4230943;27;20223;-75
2023/10/23 08:45:11;;;;;;;4.67;1.83;;;12.10;99.90;;;;;;4230652;27;20224;-73
2023/10/23 08:47:14;;;;;;;3.07;1.40;;;12.10;99.90;;;;;;4232190;27;20639;-76
2023/10/23 08:49:16;;;;;;;3.20;1.40;;;12.20;99.90;;;;;;4222937;27;20277;-74
2023/10/23 08:51:18;;;;;;;4.63;1.50;;;12.20;99.90;;;;;;4224240;28;20722;-74
2023/10/23 08:53:23;;;;;;;3.27;1.17;;;12.30;99.90;;;;;;4226340;27;20225;-74
2023/10/23 08:55:26;;;;;;;2.17;1.27;;;12.40;99.90;;;;;;4222583;28;20192;-74
2023/10/23 08:57:30;;;;;;;3.27;1.40;;;12.60;99.90;;;;;;4224734;28;20201;-74
2023/10/23 08:59:33;;;;;;;4.33;1.60;;;12.50;99.90;;;;;;4227505;27;20202;-74
2023/10/23 09:01:35;;;;;;;4.00;1.37;;;12.50;99.90;;;;;;4224176;28;20258;-74
2023/10/23 09:03:37;;;;;;;4.93;1.50;;;12.60;99.90;;;;;;4226113;27;20821;-74
2023/10/23 09:05:39;;;;;;;4.23;1.20;;;12.60;99.90;;;;;;4230780;27;20207;-75
2023/10/23 09:07:41;;;;;;;3.33;1.13;;;12.60;99.90;;;;;;4225877;28;20216;-74
2023/10/23 09:09:43;;;;;;;3.17;1.20;;;12.70;99.90;;;;;;4231581;27;20201;-75
2023/10/23 09:11:48;;;;;;;3.50;1.50;;;12.70;99.90;;;;;;4222801;28;20206;-76
2023/10/23 09:13:50;;;;;;;2.47;1.23;;;12.70;99.90;;;;;;4226854;27;20238;-74
2023/10/23 09:15:52;;;;;;;3.17;1.40;;;12.80;99.90;;;;;;4225804;27;20262;-74
2023/10/23 09:17:54;;;;;;;1.67;1.00;;;12.80;99.90;;;;;;4224604;28;20241;-74
2023/10/23 09:19:57;;;;;;;1.70;1.10;;;12.80;99.90;;;;;;4225805;27;20701;-75
2023/10/23 09:21:59;;;;;;;3.07;1.27;;;12.90;99.90;;;;;;4225208;27;20757;-73
2023/10/23 09:24:03;;;;;;;3.90;1.40;;;13.00;99.90;;;;;;4228357;27;20242;-74
2023/10/23 09:26:04;;;;;;;3.23;1.57;;;13.10;99.90;;;;;;4221022;27;20248;-74
2023/10/23 09:28:11;;;;;;;5.93;1.50;;;13.10;99.90;;;;;;4225390;27;20216;-75
2023/10/23 09:30:15;;;;;;;2.73;1.30;;;13.10;99.90;;;;;;4227868;28;20212;-74
2023/10/23 09:32:18;;;;;;;3.60;1.40;;;13.20;99.90;;;;;;4226935;27;20272;-74
2023/10/23 09:34:21;;;;;;;3.17;1.37;;;13.30;99.90;;;;;;4228271;27;20206;-75
2023/10/23 09:36:26;;;;;;;2.93;1.40;;;13.30;99.90;;;;;;4227962;28;20240;-74
2023/10/23 09:38:29;;;;;;;3.57;1.30;;;13.30;99.90;;;;;;4237319;27;20204;-76
2023/10/23 09:40:31;;;;;;;3.63;1.50;;;13.40;99.90;;;;;;4227487;28;20250;-74
2023/10/23 09:42:32;;;;;;;2.10;1.50;;;13.40;99.90;;;;;;4227172;28;20295;-76
2023/10/23 09:44:36;;;;;;;6.47;2.07;;;13.40;99.90;;;;;;4228376;27;20755;-75
2023/10/23 09:46:40;;;;;;;5.37;1.77;;;13.50;99.90;;;;;;4227272;27;20217;-75
2023/10/23 09:48:44;;;;;;;5.87;1.70;;;13.60;99.90;;;;;;4226036;28;20210;-73
2023/10/23 09:50:50;;;;;;;5.10;1.77;;;13.60;99.90;;;;;;4226131;27;20269;-74
2023/10/23 09:52:57;;;;;;;4.40;1.67;;;13.70;99.90;;;;;;4227881;27;20626;-74
2023/10/23 09:55:01;;;;;;;3.77;1.70;;;13.70;99.90;;;;;;4225912;27;20203;-73
2023/10/23 09:57:06;;;;;;;5.00;1.80;;;13.80;99.90;;;;;;4222294;28;20673;-73
2023/10/23 09:59:09;;;;;;;3.97;1.53;;;13.90;99.90;;;;;;4221460;28;20264;-74
2023/10/23 10:01:12;;;;;;;3.93;1.67;;;13.90;99.90;;;;;;4223077;28;20215;-73
2023/10/23 10:03:18;;;;;;;5.43;1.60;;;13.90;99.90;;;;;;4224799;27;20226;-73
2023/10/23 10:05:26;;;;;;;3.23;1.50;;;14.00;99.90;;;;;;4220692;28;20327;-72
2023/10/23 10:07:40;;;;;;;4.87;1.70;;;13.90;99.90;;;;;;4224295;27;20203;-73
2023/10/23 10:09:45;;;;;;;2.53;1.63;;;14.10;99.90;;;;;;4222749;28;20223;-73
2023/10/23 10:11:47;;;;;;;3.03;1.37;;;14.10;99.90;;;;;;4222284;28;20206;-73
2023/10/23 10:13:49;;;;;;;4.67;1.40;;;14.10;99.90;;;;;;4227676;28;20206;-72
2023/10/23 10:15:55;;;;;;;2.77;1.53;;;14.10;99.90;;;;;;4226719;27;20205;-76
2023/10/23 10:17:57;;;;;;;2.33;1.43;;;14.20;99.90;;;;;;4226481;28;20263;-75
2023/10/23 10:20:02;;;;;;;4.13;1.50;;;14.30;99.90;;;;;;4219682;28;20224;-73
2023/10/23 10:22:13;;;;;;;5.83;1.30;;;14.30;99.90;;;;;;4222553;28;20306;-73
2023/10/23 10:24:16;;;;;;;4.50;1.30;;;14.40;99.90;;;;;;4219796;28;20208;-73
2023/10/23 10:26:20;;;;;;;5.47;1.57;;;14.40;99.90;;;;;;4226662;28;20219;-73
2023/10/23 10:28:27;;;;;;;3.37;1.50;;;14.50;99.90;;;;;;4230112;28;21810;-74
2023/10/23 10:30:38;;;;;;;2.37;1.47;;;14.60;99.90;;;;;;4226516;28;20263;-74
2023/10/23 10:32:40;;;;;;;2.13;1.20;;;14.80;99.90;;;;;;4226160;28;20308;-75
2023/10/23 10:34:50;;;;;;;2.70;1.20;;;14.90;99.90;;;;;;4226643;28;20254;-74
2023/10/23 10:36:52;;;;;;;2.20;1.60;;;15.00;99.90;;;;;;4226790;28;20228;-74